createdAt,value
2019-05-30T00:01:41.646Z,69.43
2019-05-30T00:04:12.139Z,69.82
2019-05-30T00:06:41.675Z,70.62
2019-05-30T00:09:12.490Z,71.08
2019-05-30T00:11:42.937Z,71.96
2019-05-30T00:14:14.413Z,72.91
2019-05-30T00:16:43.742Z,73.20
2019-05-30T00:19:14.100Z,73.60
2019-05-30T00:21:43.922Z,73.88
2019-05-30T00:24:14.298Z,74.13
2019-05-30T00:26:45.164Z,74.70
2019-05-30T00:29:17.397Z,74.70
2019-05-30T00:31:48.119Z,75.04
2019-05-30T00:34:20.017Z,75.38
2019-05-30T00:36:50.611Z,76.07
2019-05-30T00:39:22.061Z,76.38
2019-05-30T00:41:52.763Z,76.31
2019-05-30T00:44:23.070Z,77.38
2019-05-30T00:46:53.377Z,78.34
2019-05-30T00:49:23.771Z,77.98
2019-05-30T00:51:54.596Z,78.04
2019-05-30T00:54:26.285Z,78.17
2019-05-30T00:56:58.677Z,78.10
2019-05-30T00:59:28.047Z,78.49
2019-05-30T01:01:58.624Z,78.52
2019-05-30T01:04:28.044Z,78.51
2019-05-30T01:06:58.835Z,78.46
2019-05-30T01:09:28.829Z,78.68
2019-05-30T01:11:59.154Z,78.93
2019-05-30T01:14:28.569Z,79.11
2019-05-30T01:16:59.089Z,79.26
2019-05-30T01:19:27.842Z,79.75
2019-05-30T01:21:59.146Z,79.96
2019-05-30T01:24:28.668Z,79.71
2019-05-30T01:26:59.279Z,79.65
2019-05-30T01:29:29.947Z,79.14
2019-05-30T01:32:01.457Z,79.55
2019-05-30T01:34:31.008Z,79.00
2019-05-30T01:37:01.512Z,78.63
2019-05-30T01:39:30.980Z,78.46
2019-05-30T01:42:01.812Z,78.58
2019-05-30T01:44:32.398Z,78.73
2019-05-30T01:47:02.039Z,78.99
2019-05-30T01:49:32.671Z,79.07
2019-05-30T01:52:03.080Z,79.21
2019-05-30T01:54:32.513Z,79.54
2019-05-30T01:57:02.855Z,79.50
2019-05-30T01:59:32.320Z,79.84
2019-05-30T02:02:05.106Z,79.85
2019-05-30T02:04:35.525Z,80.01
2019-05-30T02:07:07.422Z,79.77
2019-05-30T02:09:37.877Z,79.59
2019-05-30T02:12:09.702Z,79.75
2019-05-30T02:14:40.069Z,79.55
2019-05-30T02:17:10.939Z,79.65
2019-05-30T02:19:41.294Z,80.24
2019-05-30T02:22:11.127Z,80.76
2019-05-30T02:24:41.691Z,81.04
2019-05-30T02:27:12.414Z,81.18
2019-05-30T02:29:42.802Z,81.51
2019-05-30T02:32:15.057Z,81.66
2019-05-30T02:34:45.503Z,81.74
2019-05-30T02:37:15.804Z,81.20
2019-05-30T02:39:45.600Z,80.84
2019-05-30T02:42:15.943Z,80.00
2019-05-30T02:44:45.368Z,79.83
2019-05-30T02:47:14.863Z,79.94
2019-05-30T02:49:46.861Z,79.93
2019-05-30T02:52:16.256Z,80.20
2019-05-30T02:54:47.119Z,80.25
2019-05-30T02:57:15.917Z,80.45
2019-05-30T02:59:46.454Z,80.45
2019-05-30T03:02:17.877Z,80.11
2019-05-30T03:04:47.496Z,79.93
2019-05-30T03:07:16.827Z,79.87
2019-05-30T03:09:46.535Z,79.93
2019-05-30T03:12:21.272Z,79.88
2019-05-30T03:14:53.429Z,79.63
2019-05-30T03:17:23.704Z,79.61
2019-05-30T03:19:54.273Z,79.39
2019-05-30T03:22:22.839Z,79.18
2019-05-30T03:24:51.669Z,79.36
2019-05-30T03:27:20.153Z,79.19
2019-05-30T03:29:48.615Z,78.28
2019-05-30T03:33:00.875Z,77.93
2019-05-30T03:34:48.251Z,77.44
2019-05-30T03:37:27.852Z,77.43
2019-05-30T03:39:49.995Z,77.49
2019-05-30T03:42:18.805Z,76.93
2019-05-30T03:44:48.094Z,77.16
2019-05-30T03:47:20.424Z,76.71
2019-05-30T03:49:52.875Z,75.19
2019-05-30T03:52:25.510Z,71.59
2019-05-30T03:54:55.257Z,66.70
2019-05-30T03:57:28.577Z,61.99
2019-05-30T04:00:09.432Z,59.14
2019-05-30T04:02:55.899Z,57.53
2019-05-30T04:05:19.473Z,55.11
2019-05-30T04:07:52.757Z,53.12
2019-05-30T04:10:26.299Z,50.27
2019-05-30T04:13:15.255Z,48.91
2019-05-30T04:15:45.806Z,49.29
2019-05-30T04:18:16.608Z,54.64
2019-05-30T04:20:48.396Z,53.54
2019-05-30T04:23:19.465Z,54.70
2019-05-30T04:25:50.035Z,57.19
2019-05-30T04:28:21.841Z,59.96
2019-05-30T04:30:52.211Z,62.47
2019-05-30T04:33:32.339Z,64.33
2019-05-30T04:35:55.734Z,60.11
2019-05-30T04:38:26.362Z,56.40
2019-05-30T04:40:56.759Z,56.95
2019-05-30T04:43:30.812Z,59.86
2019-05-30T04:46:01.124Z,52.54
2019-05-30T04:48:30.413Z,42.57
2019-05-30T04:50:59.771Z,37.90
2019-05-30T04:53:30.244Z,34.72
2019-05-30T04:56:00.915Z,32.45
2019-05-30T04:58:30.230Z,31.39
2019-05-30T05:01:02.192Z,29.46
2019-05-30T05:03:45.073Z,29.26
2019-05-30T05:06:06.358Z,27.09
2019-05-30T05:08:37.832Z,26.04
2019-05-30T05:11:07.167Z,24.47
2019-05-30T05:13:37.559Z,22.80
2019-05-30T05:16:21.927Z,22.87
2019-05-30T05:18:39.245Z,21.49
2019-05-30T05:21:07.721Z,21.34
2019-05-30T05:23:39.388Z,20.75
2019-05-30T05:26:08.706Z,19.50
2019-05-30T05:28:41.809Z,18.87
2019-05-30T05:31:12.181Z,18.97
2019-05-30T05:33:55.801Z,17.45
2019-05-30T05:36:12.613Z,17.06
2019-05-30T05:38:42.151Z,16.90
2019-05-30T05:41:11.451Z,16.61
2019-05-30T05:43:41.813Z,16.51
2019-05-30T05:46:12.311Z,16.12
2019-05-30T05:48:42.722Z,15.25
2019-05-30T05:51:13.327Z,15.87
2019-05-30T05:53:43.733Z,14.93
2019-05-30T05:56:13.107Z,14.24
2019-05-30T05:58:43.622Z,14.28
2019-05-30T06:01:15.164Z,14.00
2019-05-30T06:03:46.202Z,13.52
2019-05-30T06:06:17.265Z,13.70
2019-05-30T06:08:47.116Z,13.64
2019-05-30T06:11:18.660Z,12.30
2019-05-30T06:13:49.907Z,11.81
2019-05-30T06:16:19.878Z,11.60
2019-05-30T06:18:50.988Z,9.83
2019-05-30T06:21:21.431Z,10.07
2019-05-30T06:23:51.839Z,10.72
2019-05-30T06:26:22.482Z,11.31
2019-05-30T06:28:52.980Z,10.40
2019-05-30T06:31:22.501Z,10.30
2019-05-30T06:33:52.329Z,10.38
2019-05-30T06:36:23.276Z,10.58
2019-05-30T06:38:58.039Z,10.03
2019-05-30T06:41:27.719Z,9.82
2019-05-30T06:43:58.739Z,9.41
2019-05-30T06:46:30.467Z,9.07
2019-05-30T06:49:03.027Z,9.01
2019-05-30T06:51:32.088Z,9.13
2019-05-30T06:54:02.503Z,9.69
2019-05-30T06:56:32.959Z,9.65
2019-05-30T06:59:02.364Z,9.25
2019-05-30T07:01:33.067Z,8.95
2019-05-30T07:04:04.499Z,9.39
2019-05-30T07:06:35.714Z,9.00
2019-05-30T07:09:12.506Z,8.79
2019-05-30T07:11:43.019Z,8.55
2019-05-30T07:14:13.317Z,8.20
2019-05-30T07:16:42.734Z,7.70
2019-05-30T07:19:13.093Z,7.35
2019-05-30T07:21:43.606Z,7.27
2019-05-30T07:24:14.117Z,6.75
2019-05-30T07:26:43.621Z,7.79
2019-05-30T07:29:14.314Z,7.76
2019-05-30T07:31:45.009Z,7.75
2019-05-30T07:34:16.547Z,7.45
2019-05-30T07:36:48.950Z,6.37
2019-05-30T07:39:19.376Z,6.57
2019-05-30T07:42:05.190Z,7.13
2019-05-30T07:44:24.803Z,5.38
2019-05-30T07:46:56.632Z,5.64
2019-05-30T07:49:28.250Z,5.16
2019-05-30T07:51:57.836Z,5.37
2019-05-30T07:54:26.902Z,5.47
2019-05-30T07:56:58.764Z,5.96
2019-05-30T07:59:30.726Z,6.32
2019-05-30T08:02:00.011Z,5.42
2019-05-30T08:04:34.233Z,5.08
2019-05-30T08:07:06.357Z,4.94
2019-05-30T08:09:39.303Z,5.98
2019-05-30T08:12:08.981Z,5.71
2019-05-30T08:14:41.851Z,5.48
2019-05-30T08:17:15.911Z,5.03
2019-05-30T08:19:48.930Z,4.77
2019-05-30T08:22:21.637Z,4.45
2019-05-30T08:24:52.159Z,4.23
2019-05-30T08:27:21.440Z,4.38
2019-05-30T08:29:52.119Z,5.49
2019-05-30T08:32:22.634Z,4.39
2019-05-30T08:34:52.093Z,4.37
2019-05-30T08:37:23.240Z,4.26
2019-05-30T08:39:53.695Z,7.13
2019-05-30T08:42:22.524Z,12.45
2019-05-30T08:44:52.994Z,7.06
2019-05-30T08:47:24.883Z,5.73
2019-05-30T08:49:55.997Z,5.08
2019-05-30T08:52:26.498Z,4.56
2019-05-30T08:54:56.921Z,4.09
2019-05-30T08:57:26.312Z,6.69
2019-05-30T08:59:56.622Z,5.26
2019-05-30T09:02:29.165Z,5.26
2019-05-30T09:04:58.676Z,4.93
2019-05-30T09:07:31.754Z,5.02
2019-05-30T09:10:02.366Z,6.22
2019-05-30T09:12:33.420Z,6.50
2019-05-30T09:15:04.222Z,6.71
2019-05-30T09:17:33.631Z,6.98
2019-05-30T09:20:03.422Z,7.34
2019-05-30T09:22:35.665Z,6.86
2019-05-30T09:25:10.882Z,7.28
2019-05-30T09:27:41.438Z,7.49
2019-05-30T09:30:14.040Z,8.67
2019-05-30T09:32:45.224Z,8.12
2019-05-30T09:35:16.358Z,12.19
2019-05-30T09:37:47.608Z,10.60
2019-05-30T09:40:22.381Z,10.06
2019-05-30T09:42:53.728Z,9.13
2019-05-30T09:45:23.918Z,9.46
2019-05-30T09:47:54.451Z,9.42
2019-05-30T09:50:25.045Z,9.04
2019-05-30T09:52:55.528Z,10.88
2019-05-30T09:55:27.570Z,11.22
2019-05-30T09:57:58.247Z,11.06
2019-05-30T10:00:31.693Z,12.59
2019-05-30T10:03:00.417Z,14.38
2019-05-30T10:05:30.937Z,16.66
2019-05-30T10:08:03.318Z,18.14
2019-05-30T10:10:36.355Z,19.39
2019-05-30T10:13:06.117Z,20.56
2019-05-30T10:15:36.850Z,21.38
2019-05-30T10:18:19.154Z,22.66
2019-05-30T10:21:00.731Z,25.96
2019-05-30T10:23:35.684Z,23.49
2019-05-30T10:26:07.202Z,24.18
2019-05-30T10:28:37.371Z,24.15
2019-05-30T10:31:07.517Z,25.17
2019-05-30T10:33:36.855Z,25.49
2019-05-30T10:36:09.542Z,27.39
2019-05-30T10:38:42.558Z,28.29
2019-05-30T10:41:20.986Z,25.29
2019-05-30T10:43:51.734Z,25.71
2019-05-30T10:46:23.761Z,26.57
2019-05-30T10:48:56.737Z,27.30
2019-05-30T10:51:26.324Z,26.53
2019-05-30T10:53:58.793Z,27.07
2019-05-30T10:56:30.448Z,26.21
2019-05-30T10:59:00.943Z,25.40
2019-05-30T11:01:34.418Z,23.12
2019-05-30T11:04:04.152Z,26.28
2019-05-30T11:07:10.155Z,25.96
2019-05-30T11:09:27.181Z,25.08
2019-05-30T11:11:57.508Z,25.21
2019-05-30T11:14:26.808Z,26.23
2019-05-30T11:16:58.896Z,26.95
2019-05-30T11:19:28.249Z,27.34
2019-05-30T11:21:58.178Z,27.96
2019-05-30T11:24:30.500Z,28.46
2019-05-30T11:27:00.057Z,28.05
2019-05-30T11:29:30.998Z,28.22
2019-05-30T11:32:01.399Z,29.49
2019-05-30T11:34:30.867Z,28.07
2019-05-30T11:37:18.096Z,28.41
2019-05-30T11:39:33.703Z,26.98
2019-05-30T11:42:04.153Z,25.82
2019-05-30T11:44:33.525Z,27.40
2019-05-30T11:47:03.037Z,25.92
2019-05-30T11:49:33.384Z,24.91
2019-05-30T11:52:02.902Z,25.54
2019-05-30T11:54:32.512Z,25.53
2019-05-30T11:57:03.409Z,25.30
2019-05-30T11:59:35.577Z,26.31
2019-05-30T12:02:04.938Z,26.64
2019-05-30T12:04:40.741Z,25.87
2019-05-30T12:07:13.015Z,25.70
2019-05-30T12:09:43.520Z,26.87
2019-05-30T12:12:15.399Z,26.41
2019-05-30T12:14:45.907Z,26.11
2019-05-30T12:17:17.275Z,27.24
2019-05-30T12:19:49.692Z,27.58
2019-05-30T12:22:19.361Z,26.79
2019-05-30T12:24:48.850Z,28.22
2019-05-30T12:27:18.180Z,28.85
2019-05-30T12:29:51.979Z,27.96
2019-05-30T12:32:22.724Z,28.48
2019-05-30T12:34:54.286Z,28.61
2019-05-30T12:37:24.778Z,28.68
2019-05-30T12:39:56.447Z,28.66
2019-05-30T12:42:28.017Z,26.54
2019-05-30T12:44:59.056Z,27.18
2019-05-30T12:47:29.531Z,26.04
2019-05-30T12:49:59.312Z,27.12
2019-05-30T12:52:29.922Z,25.72
2019-05-30T12:55:00.861Z,26.98
2019-05-30T12:57:31.669Z,24.27
2019-05-30T13:00:07.406Z,24.65
2019-05-30T13:02:34.572Z,25.29
2019-05-30T13:05:08.465Z,25.66
2019-05-30T13:07:37.900Z,27.28
2019-05-30T13:10:10.499Z,28.38
2019-05-30T13:12:40.024Z,27.60
2019-05-30T13:15:11.520Z,27.66
2019-05-30T13:17:40.891Z,28.22
2019-05-30T13:20:13.713Z,29.02
2019-05-30T13:22:46.589Z,27.21
2019-05-30T13:25:19.397Z,27.92
2019-05-30T13:27:48.872Z,27.76
2019-05-30T13:30:21.565Z,29.18
2019-05-30T13:32:50.965Z,29.12
2019-05-30T13:35:21.452Z,29.79
2019-05-30T13:37:50.814Z,29.53
2019-05-30T13:40:25.405Z,30.12
2019-05-30T13:42:55.908Z,29.67
2019-05-30T13:45:27.665Z,28.98
2019-05-30T13:47:58.597Z,29.84
2019-05-30T13:50:29.530Z,30.97
2019-05-30T13:53:02.979Z,29.65
2019-05-30T13:55:33.455Z,28.76
2019-05-30T13:58:04.174Z,28.97
2019-05-30T14:00:36.472Z,28.78
2019-05-30T14:03:06.821Z,30.60
2019-05-30T14:05:39.480Z,31.22
2019-05-30T14:08:15.918Z,28.72
2019-05-30T14:10:40.946Z,29.77
2019-05-30T14:13:11.420Z,30.37
2019-05-30T14:15:40.815Z,30.34
2019-05-30T14:18:14.254Z,30.00
2019-05-30T14:20:45.595Z,28.43
2019-05-30T14:23:17.753Z,28.42
2019-05-30T14:25:48.243Z,28.54
2019-05-30T14:28:18.753Z,28.40
2019-05-30T14:30:49.283Z,29.31
2019-05-30T14:33:22.282Z,29.19
2019-05-30T14:35:54.481Z,28.30
2019-05-30T14:38:26.460Z,27.01
2019-05-30T14:40:57.368Z,27.64
2019-05-30T14:43:27.768Z,28.49
2019-05-30T14:46:01.829Z,27.88
2019-05-30T14:48:32.338Z,27.21
2019-05-30T14:51:01.875Z,26.58
2019-05-30T14:53:31.210Z,26.98
2019-05-30T14:56:00.519Z,26.51
2019-05-30T14:58:31.417Z,27.05
2019-05-30T15:01:04.966Z,28.27
2019-05-30T15:03:39.162Z,28.86
2019-05-30T15:06:12.889Z,28.41
2019-05-30T15:08:42.736Z,29.10
2019-05-30T15:11:13.780Z,30.37
2019-05-30T15:13:44.460Z,30.42
2019-05-30T15:16:17.231Z,29.74
2019-05-30T15:18:46.946Z,30.80
2019-05-30T15:21:18.788Z,29.79
2019-05-30T15:23:52.539Z,29.46
2019-05-30T15:26:22.941Z,30.49
2019-05-30T15:28:53.363Z,28.27
2019-05-30T15:31:23.665Z,29.33
2019-05-30T15:33:53.394Z,29.93
2019-05-30T15:36:21.857Z,30.17
2019-05-30T15:38:50.789Z,29.87
2019-05-30T15:41:20.368Z,28.37
2019-05-30T15:43:51.630Z,28.88
2019-05-30T15:46:24.097Z,29.28
2019-05-30T15:48:54.505Z,29.41
2019-05-30T15:51:25.225Z,26.97
2019-05-30T15:53:54.727Z,26.65
2019-05-30T15:56:25.200Z,28.03
2019-05-30T15:58:56.231Z,27.15
2019-05-30T16:01:25.594Z,26.70
2019-05-30T16:03:56.829Z,27.38
2019-05-30T16:06:29.101Z,28.75
2019-05-30T16:09:01.683Z,28.02
2019-05-30T16:11:32.224Z,29.00
2019-05-30T16:14:01.177Z,29.62
2019-05-30T16:16:39.307Z,26.49
2019-05-30T16:19:17.286Z,27.84
2019-05-30T16:21:41.792Z,26.80
2019-05-30T16:24:14.537Z,26.20
2019-05-30T16:26:43.999Z,27.25
2019-05-30T16:29:13.690Z,27.44
2019-05-30T16:31:44.351Z,26.97
2019-05-30T16:34:13.978Z,27.28
2019-05-30T16:36:47.246Z,27.26
2019-05-30T16:39:20.394Z,26.54
2019-05-30T16:41:49.880Z,27.34
2019-05-30T16:44:22.546Z,27.52
2019-05-30T16:46:55.450Z,27.52
2019-05-30T16:49:27.318Z,27.78
2019-05-30T16:51:59.117Z,28.09
2019-05-30T16:54:28.451Z,28.97
2019-05-30T16:57:00.103Z,29.59
2019-05-30T16:59:30.984Z,29.24
2019-05-30T17:02:00.287Z,30.19
2019-05-30T17:04:31.018Z,30.19
2019-05-30T17:07:00.642Z,28.98
2019-05-30T17:09:31.188Z,29.12
2019-05-30T17:12:01.758Z,28.22
2019-05-30T17:14:34.715Z,28.57
2019-05-30T17:17:06.009Z,27.81
2019-05-30T17:19:39.384Z,28.75
2019-05-30T17:22:08.663Z,30.07
2019-05-30T17:24:38.153Z,30.49
2019-05-30T17:27:08.716Z,30.36
2019-05-30T17:29:39.977Z,31.27
2019-05-30T17:32:12.414Z,30.66
2019-05-30T17:34:42.986Z,30.80
2019-05-30T17:37:11.806Z,30.59
2019-05-30T17:39:42.536Z,31.74
2019-05-30T17:42:12.937Z,32.15
2019-05-30T17:44:43.251Z,32.84
2019-05-30T17:47:13.644Z,32.37
2019-05-30T17:49:44.152Z,32.70
2019-05-30T17:52:16.352Z,32.62
2019-05-30T17:54:48.231Z,33.20
2019-05-30T17:57:19.933Z,33.76
2019-05-30T17:59:49.123Z,32.77
2019-05-30T18:02:20.306Z,33.73
2019-05-30T18:04:49.669Z,33.18
2019-05-30T18:07:20.792Z,34.63
2019-05-30T18:09:51.410Z,34.43
2019-05-30T18:12:22.973Z,34.35
2019-05-30T18:14:51.808Z,35.04
2019-05-30T18:17:23.116Z,35.46
2019-05-30T18:19:55.412Z,36.08
2019-05-30T18:22:27.855Z,35.62
2019-05-30T18:24:57.185Z,36.44
2019-05-30T18:27:28.056Z,36.51
2019-05-30T18:29:59.760Z,36.18
2019-05-30T18:32:30.346Z,36.99
2019-05-30T18:35:00.863Z,36.83
2019-05-30T18:37:32.552Z,38.22
2019-05-30T18:40:03.664Z,39.02
2019-05-30T18:42:35.938Z,38.84
2019-05-30T18:45:08.246Z,38.77
2019-05-30T18:47:38.627Z,39.34
2019-05-30T18:50:09.731Z,39.92
2019-05-30T18:52:41.736Z,39.88
2019-05-30T18:55:12.246Z,41.57
2019-05-30T18:57:41.609Z,41.85
2019-05-30T19:00:16.590Z,41.94
2019-05-30T19:02:49.241Z,42.05
2019-05-30T19:05:19.619Z,43.10
2019-05-30T19:07:50.451Z,43.37
2019-05-30T19:10:23.776Z,43.22
2019-05-30T19:12:53.358Z,42.97
2019-05-30T19:15:29.353Z,43.00
2019-05-30T19:17:57.595Z,45.09
2019-05-30T19:20:31.818Z,45.24
2019-05-30T19:23:01.555Z,45.36
2019-05-30T19:25:32.428Z,46.99
2019-05-30T19:28:03.188Z,47.40
2019-05-30T19:30:35.091Z,48.27
2019-05-30T19:33:05.577Z,49.84
2019-05-30T19:35:40.250Z,47.43
2019-05-30T19:38:12.269Z,46.93
2019-05-30T19:40:42.988Z,46.66
2019-05-30T19:43:11.547Z,47.55
2019-05-30T19:45:40.013Z,46.74
2019-05-30T19:48:10.416Z,46.42
2019-05-30T19:50:38.939Z,46.30
2019-05-30T19:53:07.492Z,46.58
2019-05-30T19:55:37.971Z,48.22
2019-05-30T19:58:08.679Z,48.37
2019-05-30T20:00:57.007Z,48.11
2019-05-30T20:03:11.057Z,49.00
2019-05-30T20:05:43.447Z,47.93
2019-05-30T20:08:13.404Z,48.37
2019-05-30T20:10:43.839Z,48.82
2019-05-30T20:13:14.532Z,49.52
2019-05-30T20:15:44.234Z,49.66
2019-05-30T20:18:13.643Z,49.67
2019-05-30T20:20:56.379Z,50.08
2019-05-30T20:23:20.534Z,50.60
2019-05-30T20:25:49.983Z,51.07
2019-05-30T20:28:19.287Z,50.99
2019-05-30T20:30:48.803Z,51.78
2019-05-30T20:33:19.159Z,51.58
2019-05-30T20:35:48.667Z,51.94
2019-05-30T20:38:20.819Z,52.18
2019-05-30T20:40:50.323Z,53.02
2019-05-30T20:43:24.256Z,53.12
2019-05-30T20:45:55.408Z,54.22
2019-05-30T20:48:25.811Z,56.44
2019-05-30T20:50:57.712Z,56.01
2019-05-30T20:53:28.054Z,56.60
2019-05-30T20:55:58.666Z,56.76
2019-05-30T20:58:30.040Z,57.18
2019-05-30T21:01:03.527Z,57.00
2019-05-30T21:03:33.596Z,56.38
2019-05-30T21:06:04.367Z,56.47
2019-05-30T21:08:35.077Z,56.86
2019-05-30T21:11:07.270Z,57.38
2019-05-30T21:13:38.246Z,58.64
2019-05-30T21:16:10.377Z,57.34
2019-05-30T21:18:42.037Z,57.12
2019-05-30T21:21:20.261Z,56.88
2019-05-30T21:23:50.814Z,59.17
2019-05-30T21:26:21.074Z,58.66
2019-05-30T21:28:50.369Z,58.45
2019-05-30T21:31:21.108Z,58.62
2019-05-30T21:33:51.986Z,58.34
2019-05-30T21:36:21.814Z,57.57
2019-05-30T21:38:51.124Z,58.03
2019-05-30T21:41:21.522Z,58.19
2019-05-30T21:43:52.039Z,56.82
2019-05-30T21:46:21.745Z,55.86
2019-05-30T21:48:52.893Z,55.89
2019-05-30T21:51:22.325Z,56.01
2019-05-30T21:53:54.071Z,56.28
2019-05-30T21:56:24.376Z,55.76
2019-05-30T21:58:55.798Z,56.36
2019-05-30T22:01:30.862Z,56.37
2019-05-30T22:04:00.440Z,57.77
2019-05-30T22:06:31.013Z,57.58
2019-05-30T22:09:03.552Z,57.66
2019-05-30T22:11:32.978Z,59.20
2019-05-30T22:14:02.236Z,57.79
2019-05-30T22:16:31.957Z,57.69
2019-05-30T22:19:04.603Z,57.92
2019-05-30T22:21:35.133Z,58.41
2019-05-30T22:24:05.521Z,57.59
2019-05-30T22:26:37.598Z,57.92
2019-05-30T22:29:08.329Z,58.50
2019-05-30T22:31:39.976Z,58.81
2019-05-30T22:34:11.435Z,58.87
2019-05-30T22:36:43.019Z,58.34
2019-05-30T22:39:12.387Z,58.22
2019-05-30T22:41:43.825Z,57.89
2019-05-30T22:44:15.323Z,57.39
2019-05-30T22:46:46.197Z,57.44
2019-05-30T22:49:18.505Z,57.24
2019-05-30T22:51:49.043Z,57.32
2019-05-30T22:54:17.534Z,57.39
2019-05-30T22:56:49.667Z,57.45
2019-05-30T22:59:20.187Z,57.84
2019-05-30T23:01:52.022Z,57.75
2019-05-30T23:04:21.829Z,58.15
2019-05-30T23:06:54.541Z,58.50
2019-05-30T23:09:25.527Z,58.30
2019-05-30T23:11:57.115Z,57.62
2019-05-30T23:14:29.212Z,57.22
2019-05-30T23:16:59.598Z,57.35
2019-05-30T23:19:30.108Z,57.45
2019-05-30T23:22:01.041Z,57.94
2019-05-30T23:24:30.546Z,58.47
2019-05-30T23:27:00.870Z,58.00
2019-05-30T23:29:31.320Z,58.15
2019-05-30T23:32:03.286Z,58.97
2019-05-30T23:34:33.693Z,58.87
2019-05-30T23:37:03.693Z,58.73
2019-05-30T23:39:33.046Z,59.25
2019-05-30T23:42:03.443Z,60.11
2019-05-30T23:44:32.949Z,60.14
2019-05-30T23:47:03.433Z,60.18
2019-05-30T23:49:33.723Z,60.21
2019-05-30T23:52:02.665Z,59.77
2019-05-30T23:54:31.939Z,60.77
2019-05-30T23:57:02.332Z,60.04
2019-05-30T23:59:31.737Z,59.89
